Gregory, South Dakota
Current Conditions -  °F | °C
As of 8:53 PM on Monday 20 Oct 2014 (Local Time) from KICR Reporting Station
Clear Clear  
Wind Chill: 56°   Ceiling: Unl
Heat Index: 56°   Visibility: 10mi
Dew Point: 39°   Wind: 12mph
Humidity: 53%   Direction: 130°SE
Pressure: 29.97"   Gusts: NA
Location:  43.23°N, 99.43°W
Report Text: KICR 210153Z AUTO 13010KT 10SM CLR 13/04 A2997 RMK AO2 SLP153 T01330039
Loading
Personal Weather Stations






























Interactive Weather Map New forecast layout! Learn more

10-Day Weather Forecast

Advertisements
Track Severe Weather on mobile